Time;durP1;ratioP1;P1;durP2;ratioP2;P2;SDS_P1;SDS_P2;PMS_P1;PMS_P2;Temp;Humidity;BMP_temperature;BMP_pressure;BME280_temperature;BME280_humidity;BME280_pressure;Samples;Min_cycle;Max_cycle;Signal;HPM_P1;HPM_P2
2022/03/12 00:00:43;;;;;;;3.72;2.90;;;21.10;32.50;;;;;;4992414;28;20046;-59
2022/03/12 00:03:10;;;;;;;2.88;2.67;;;21.10;32.60;;;;;;4993893;28;20053;-60
2022/03/12 00:05:40;;;;;;;6.22;3.45;;;21.10;32.50;;;;;;4995176;28;20553;-59
2022/03/12 00:08:07;;;;;;;3.55;2.80;;;21.10;32.50;;;;;;4995000;28;20057;-58
2022/03/12 00:10:32;;;;;;;3.20;2.67;;;21.10;32.50;;;;;;4996210;28;20050;-59
2022/03/12 00:12:59;;;;;;;3.63;3.03;;;21.00;32.40;;;;;;4995617;28;20052;-58
2022/03/12 00:15:26;;;;;;;3.33;2.42;;;21.00;32.40;;;;;;4994188;28;20050;-58
2022/03/12 00:17:51;;;;;;;3.10;2.80;;;21.00;32.30;;;;;;4992365;28;20050;-59
2022/03/12 00:20:19;;;;;;;3.60;2.67;;;21.00;32.30;;;;;;4994790;28;20065;-59
2022/03/12 00:22:48;;;;;;;3.50;2.90;;;21.00;32.30;;;;;;4995763;28;20034;-59
2022/03/12 00:25:20;;;;;;;3.20;2.90;;;20.90;32.20;;;;;;4993519;28;20399;-59
2022/03/12 00:27:46;;;;;;;2.80;2.60;;;20.90;32.20;;;;;;4993703;28;20046;-59
2022/03/12 00:30:17;;;;;;;2.85;2.65;;;20.90;32.20;;;;;;4994476;28;20096;-59
2022/03/12 00:32:43;;;;;;;3.55;2.85;;;20.90;32.20;;;;;;4994648;28;20133;-59
2022/03/12 00:35:09;;;;;;;3.30;2.70;;;20.90;32.20;;;;;;4993196;28;20124;-59
2022/03/12 00:37:35;;;;;;;3.28;2.97;;;20.90;32.20;;;;;;4996510;28;20053;-58
2022/03/12 00:40:01;;;;;;;3.47;3.15;;;20.90;32.20;;;;;;4995232;28;20393;-58
2022/03/12 00:42:27;;;;;;;3.05;2.80;;;20.90;32.20;;;;;;4994063;28;20034;-59
2022/03/12 00:44:53;;;;;;;3.22;2.92;;;20.80;32.10;;;;;;4993825;28;20042;-59
2022/03/12 00:47:18;;;;;;;3.28;3.03;;;20.90;32.10;;;;;;4998093;28;20141;-58
2022/03/12 00:49:45;;;;;;;3.42;3.13;;;20.90;32.20;;;;;;4995283;28;20686;-59
2022/03/12 00:52:11;;;;;;;3.20;2.88;;;20.90;32.20;;;;;;4991152;28;20050;-59
2022/03/12 00:54:36;;;;;;;3.10;2.85;;;20.90;32.10;;;;;;4993817;28;20047;-59
2022/03/12 00:57:02;;;;;;;3.20;2.90;;;20.80;32.00;;;;;;4991802;28;20045;-59
2022/03/12 00:59:28;;;;;;;3.00;2.70;;;20.80;32.00;;;;;;4995090;28;20050;-58
2022/03/12 01:01:54;;;;;;;2.85;2.65;;;20.80;32.00;;;;;;4992475;28;20821;-58
2022/03/12 01:04:19;;;;;;;3.00;2.70;;;20.80;32.00;;;;;;4993713;28;20514;-59
2022/03/12 01:06:46;;;;;;;3.30;2.78;;;20.80;32.00;;;;;;4994803;28;20129;-58
2022/03/12 01:09:13;;;;;;;3.72;3.42;;;20.80;32.00;;;;;;4992767;28;20054;-60
2022/03/12 01:11:40;;;;;;;2.95;2.70;;;20.80;31.90;;;;;;4994531;28;20097;-59
2022/03/12 01:14:06;;;;;;;3.70;3.33;;;20.80;31.90;;;;;;4995611;28;20056;-60
2022/03/12 01:16:33;;;;;;;3.13;2.90;;;20.80;31.90;;;;;;4995953;28;20483;-59
2022/03/12 01:18:59;;;;;;;6.32;2.88;;;20.70;31.90;;;;;;4998804;28;20046;-59
2022/03/12 01:21:24;;;;;;;3.83;2.80;;;20.70;31.90;;;;;;4994547;28;20057;-59
2022/03/12 01:23:51;;;;;;;2.92;2.65;;;20.80;31.90;;;;;;4993046;28;20070;-59
2022/03/12 01:26:18;;;;;;;3.35;2.80;;;20.70;31.90;;;;;;4994772;28;20049;-59
2022/03/12 01:28:45;;;;;;;3.70;2.70;;;20.70;31.90;;;;;;4992227;28;20034;-59
2022/03/12 01:31:11;;;;;;;3.13;2.92;;;20.70;31.90;;;;;;4995427;28;20046;-59
2022/03/12 01:33:36;;;;;;;2.90;2.70;;;20.70;31.80;;;;;;4999619;28;20054;-59
2022/03/12 01:36:03;;;;;;;3.00;2.80;;;20.70;31.80;;;;;;4994471;28;20116;-59
2022/03/12 01:38:47;;;;;;;3.00;2.70;;;20.60;31.70;;;;;;4994029;28;20100;-59
2022/03/12 01:41:13;;;;;;;3.95;2.97;;;20.70;31.70;;;;;;4993131;28;20057;-60
2022/03/12 01:43:43;;;;;;;2.60;2.40;;;20.70;31.90;;;;;;4992337;28;20133;-59
2022/03/12 01:46:10;;;;;;;3.17;2.75;;;20.60;31.70;;;;;;4992869;28;20465;-59
2022/03/12 01:48:41;;;;;;;3.03;2.72;;;20.60;31.80;;;;;;4993956;28;20605;-59
2022/03/12 01:51:06;;;;;;;2.95;2.65;;;20.60;31.70;;;;;;4995168;28;20072;-62
2022/03/12 01:53:32;;;;;;;3.40;3.10;;;20.60;31.70;;;;;;4992543;28;20062;-59
2022/03/12 01:55:58;;;;;;;3.05;2.65;;;20.60;31.70;;;;;;4992120;28;20053;-58
2022/03/12 01:58:24;;;;;;;3.80;3.08;;;20.60;31.70;;;;;;4991924;28;20136;-59
2022/03/12 02:00:51;;;;;;;2.90;2.70;;;20.60;31.70;;;;;;4992946;28;20050;-59
2022/03/12 02:03:23;;;;;;;3.00;2.80;;;20.60;31.60;;;;;;4993432;28;20123;-59
2022/03/12 02:05:49;;;;;;;2.90;2.60;;;20.60;31.60;;;;;;4993210;28;20145;-59
2022/03/12 02:08:16;;;;;;;3.08;2.83;;;20.60;31.70;;;;;;4995117;28;20183;-59
2022/03/12 02:10:43;;;;;;;3.83;3.15;;;20.60;31.60;;;;;;4993351;28;20050;-59
2022/03/12 02:13:10;;;;;;;4.35;3.00;;;20.60;31.60;;;;;;5006972;28;20185;-59
2022/03/12 02:15:36;;;;;;;4.03;3.15;;;20.60;32.40;;;;;;4994464;28;20049;-59
2022/03/12 02:18:02;;;;;;;3.75;3.00;;;20.60;31.70;;;;;;4991940;28;20073;-59
2022/03/12 02:20:27;;;;;;;3.15;2.85;;;20.50;31.60;;;;;;4994764;28;20403;-59
2022/03/12 02:22:54;;;;;;;2.78;2.58;;;20.60;31.60;;;;;;4997121;28;20046;-59
2022/03/12 02:25:40;;;;;;;3.42;2.97;;;20.50;31.50;;;;;;4997214;28;20170;-59
2022/03/12 02:28:17;;;;;;;2.95;2.72;;;20.50;31.40;;;;;;4996869;28;20137;-59
2022/03/12 02:30:51;;;;;;;3.22;2.92;;;20.50;31.40;;;;;;4995698;28;20046;-59
2022/03/12 02:33:25;;;;;;;3.28;2.78;;;20.50;31.50;;;;;;4986539;28;20486;-60
2022/03/12 02:35:52;;;;;;;3.50;3.20;;;20.50;31.50;;;;;;4997606;28;20052;-59
2022/03/12 02:38:19;;;;;;;2.83;2.63;;;20.50;31.50;;;;;;4997026;28;20545;-63
2022/03/12 02:40:47;;;;;;;3.38;2.80;;;20.40;31.40;;;;;;4998737;28;20052;-59
2022/03/12 02:43:13;;;;;;;3.80;2.88;;;20.50;31.40;;;;;;5003540;28;20108;-60
2022/03/12 02:45:40;;;;;;;3.33;2.90;;;20.50;31.50;;;;;;4994890;28;20046;-59
2022/03/12 02:48:09;;;;;;;3.03;2.72;;;20.50;31.40;;;;;;4995643;28;20042;-59
2022/03/12 02:50:35;;;;;;;3.22;2.95;;;20.40;31.50;;;;;;4994783;28;20054;-59
2022/03/12 02:53:01;;;;;;;3.30;2.85;;;20.40;31.40;;;;;;5002252;28;20054;-59
2022/03/12 02:55:26;;;;;;;2.67;2.47;;;20.40;31.40;;;;;;4995173;28;20053;-59
2022/03/12 02:57:52;;;;;;;3.42;2.95;;;20.40;31.40;;;;;;4994465;28;20045;-59
2022/03/12 03:00:19;;;;;;;3.63;2.95;;;20.40;32.10;;;;;;4992199;28;20585;-59
2022/03/12 03:02:53;;;;;;;3.13;2.83;;;20.40;31.40;;;;;;4991159;28;20073;-59
2022/03/12 03:08:02;;;;;;;3.20;2.90;;;20.40;31.40;;;;;;4993185;28;20062;-59
2022/03/12 03:10:34;;;;;;;3.30;2.78;;;20.40;31.50;;;;;;4994472;28;20042;-60
2022/03/12 03:13:21;;;;;;;3.30;3.00;;;20.40;31.50;;;;;;4995058;28;20042;-59
2022/03/12 03:15:53;;;;;;;3.17;2.85;;;20.40;31.40;;;;;;4990202;28;20062;-60
2022/03/12 03:18:22;;;;;;;3.20;2.90;;;20.40;31.50;;;;;;4997196;28;20042;-59
2022/03/12 03:20:51;;;;;;;3.83;3.00;;;20.30;31.40;;;;;;4995774;28;20049;-60
2022/03/12 03:23:16;;;;;;;3.28;2.92;;;20.40;31.50;;;;;;4993045;28;20101;-59
2022/03/12 03:25:42;;;;;;;3.25;2.67;;;20.40;31.50;;;;;;4992888;28;20125;-59
2022/03/12 03:28:09;;;;;;;3.45;2.92;;;20.40;31.50;;;;;;4993464;28;20077;-59
2022/03/12 03:30:37;;;;;;;2.92;2.53;;;20.40;31.50;;;;;;4996160;28;20046;-59
2022/03/12 03:33:07;;;;;;;3.75;3.15;;;20.30;31.50;;;;;;5009714;28;20042;-59
2022/03/12 03:35:32;;;;;;;3.65;3.28;;;20.30;31.40;;;;;;4993837;28;20167;-59
2022/03/12 03:37:58;;;;;;;3.10;2.60;;;20.30;31.40;;;;;;4995458;28;20814;-59
2022/03/12 03:40:25;;;;;;;3.70;3.00;;;20.30;31.40;;;;;;4998209;28;20046;-59
2022/03/12 03:42:52;;;;;;;3.30;3.00;;;20.30;31.50;;;;;;4994621;28;20053;-59
2022/03/12 03:45:22;;;;;;;4.63;3.15;;;20.30;31.50;;;;;;4995003;28;20683;-59
2022/03/12 03:47:49;;;;;;;3.28;2.97;;;20.30;31.40;;;;;;4993420;28;20045;-60
2022/03/12 03:50:15;;;;;;;3.17;2.97;;;20.30;31.40;;;;;;4995164;28;20054;-58
2022/03/12 03:52:40;;;;;;;3.00;2.80;;;20.30;31.40;;;;;;4993693;28;20134;-59
2022/03/12 03:55:06;;;;;;;3.08;2.80;;;20.30;31.40;;;;;;4994035;28;20050;-59
2022/03/12 03:57:32;;;;;;;4.10;3.30;;;20.30;31.40;;;;;;4996069;28;20172;-59
2022/03/12 03:59:58;;;;;;;3.28;2.97;;;20.30;31.30;;;;;;4993725;28;20102;-60
2022/03/12 04:02:23;;;;;;;3.45;3.15;;;20.30;31.30;;;;;;4995263;28;20049;-59
2022/03/12 04:04:49;;;;;;;3.63;3.20;;;20.20;31.30;;;;;;4995870;28;20494;-59
2022/03/12 04:07:15;;;;;;;2.80;2.60;;;20.20;31.30;;;;;;4994365;28;20600;-59
2022/03/12 04:09:41;;;;;;;4.75;2.92;;;20.30;31.30;;;;;;4994336;28;20161;-59
2022/03/12 04:12:07;;;;;;;3.00;2.80;;;20.20;31.30;;;;;;4994129;28;20554;-59
2022/03/12 04:14:32;;;;;;;3.17;2.80;;;20.20;31.40;;;;;;4994352;28;20034;-59
2022/03/12 04:16:58;;;;;;;3.67;3.28;;;20.20;31.30;;;;;;4995272;28;20048;-60
2022/03/12 04:19:29;;;;;;;3.50;3.20;;;20.20;31.30;;;;;;4996619;28;20042;-60
2022/03/12 04:21:57;;;;;;;3.70;2.80;;;20.20;31.30;;;;;;4994231;28;20454;-60
2022/03/12 04:24:26;;;;;;;3.92;3.20;;;20.20;31.30;;;;;;4995393;28;20089;-59
2022/03/12 04:26:52;;;;;;;3.40;3.10;;;20.20;31.30;;;;;;4993980;28;20046;-60
2022/03/12 04:29:19;;;;;;;3.42;3.13;;;20.20;31.30;;;;;;4993885;28;20103;-58
2022/03/12 04:31:47;;;;;;;3.00;2.80;;;20.20;31.40;;;;;;4995468;28;20046;-58
2022/03/12 04:34:13;;;;;;;3.38;3.00;;;20.20;31.30;;;;;;5001361;28;20095;-59
2022/03/12 04:36:41;;;;;;;4.78;3.22;;;20.20;31.30;;;;;;4992904;28;20515;-59
2022/03/12 04:39:09;;;;;;;3.92;2.85;;;20.20;31.30;;;;;;4996603;28;20053;-58
2022/03/12 04:41:36;;;;;;;3.70;3.20;;;20.20;31.30;;;;;;4992842;28;20042;-58
2022/03/12 04:44:08;;;;;;;4.07;3.30;;;20.20;31.30;;;;;;4995348;28;20126;-59
2022/03/12 04:46:35;;;;;;;3.78;3.35;;;20.20;31.30;;;;;;5009381;28;20050;-58
2022/03/12 04:49:01;;;;;;;4.25;2.83;;;20.20;31.30;;;;;;4994449;28;20053;-60
2022/03/12 04:51:30;;;;;;;3.35;3.10;;;20.10;31.30;;;;;;4998471;28;20054;-58
2022/03/12 04:53:58;;;;;;;3.45;3.15;;;20.20;31.40;;;;;;4996477;28;20053;-59
2022/03/12 04:56:24;;;;;;;3.65;3.25;;;20.20;31.40;;;;;;4993846;28;20046;-59
2022/03/12 04:58:53;;;;;;;3.28;2.97;;;20.10;31.40;;;;;;4994353;28;20126;-58
2022/03/12 05:01:19;;;;;;;3.40;3.10;;;20.10;31.30;;;;;;4992293;28;20050;-59
2022/03/12 05:03:46;;;;;;;3.50;3.20;;;20.10;31.40;;;;;;4993510;28;20152;-58
2022/03/12 05:06:13;;;;;;;4.20;3.20;;;20.10;31.40;;;;;;4991368;28;20092;-58
2022/03/12 05:08:39;;;;;;;4.20;2.78;;;20.10;31.40;;;;;;5001505;28;20045;-58
2022/03/12 05:11:06;;;;;;;4.70;3.17;;;20.10;31.40;;;;;;4994807;28;20042;-58
2022/03/12 05:13:32;;;;;;;4.03;3.35;;;20.10;31.40;;;;;;4994798;28;20154;-58
2022/03/12 05:16:06;;;;;;;3.40;3.03;;;20.10;31.40;;;;;;4989613;28;20137;-59
2022/03/12 05:18:33;;;;;;;4.13;3.20;;;20.10;31.40;;;;;;5000558;28;20180;-59
2022/03/12 05:20:59;;;;;;;3.67;3.13;;;20.10;31.50;;;;;;4992960;28;20057;-59
2022/03/12 05:23:25;;;;;;;3.40;3.10;;;20.10;31.50;;;;;;4991763;28;20054;-58
2022/03/12 05:25:52;;;;;;;4.53;3.40;;;20.10;31.60;;;;;;4994885;28;20050;-59
2022/03/12 05:28:30;;;;;;;3.60;3.30;;;20.10;31.60;;;;;;4992271;28;20045;-59
2022/03/12 05:30:58;;;;;;;3.83;3.42;;;20.00;31.60;;;;;;5008406;28;20049;-59
2022/03/12 05:33:25;;;;;;;3.45;3.15;;;20.10;31.60;;;;;;4992195;28;20054;-59
2022/03/12 05:35:54;;;;;;;3.90;3.50;;;20.00;31.60;;;;;;4990029;28;20050;-58
2022/03/12 05:38:21;;;;;;;3.85;3.45;;;20.00;31.60;;;;;;4995746;28;20046;-59
2022/03/12 05:40:48;;;;;;;4.00;3.17;;;20.00;31.60;;;;;;4996169;28;20054;-59
2022/03/12 05:43:17;;;;;;;3.33;3.03;;;20.00;31.60;;;;;;4992985;28;20058;-58
2022/03/12 05:45:48;;;;;;;3.88;3.58;;;20.00;31.60;;;;;;4994609;28;20049;-59
2022/03/12 05:48:15;;;;;;;4.40;2.97;;;20.00;31.70;;;;;;4992971;28;20042;-58
2022/03/12 05:50:42;;;;;;;4.55;3.13;;;20.00;31.90;;;;;;4994618;28;20105;-60
2022/03/12 05:53:09;;;;;;;4.50;3.45;;;20.00;32.10;;;;;;4992349;28;20050;-60
2022/03/12 05:55:38;;;;;;;3.47;3.17;;;20.00;32.00;;;;;;4995346;28;20050;-59
2022/03/12 05:58:04;;;;;;;4.32;3.47;;;20.00;32.10;;;;;;4991793;28;20138;-59
2022/03/12 06:00:32;;;;;;;3.92;3.20;;;20.00;32.40;;;;;;4993600;28;20517;-58
2022/03/12 06:02:59;;;;;;;4.30;3.22;;;20.00;32.50;;;;;;4992070;28;20085;-58
2022/03/12 06:05:25;;;;;;;3.65;3.30;;;20.00;32.60;;;;;;4994372;28;20097;-58
2022/03/12 06:07:52;;;;;;;3.90;3.47;;;20.00;32.70;;;;;;4993586;28;20038;-59
2022/03/12 06:10:21;;;;;;;4.47;3.58;;;20.00;32.70;;;;;;4995902;28;20045;-59
2022/03/12 06:12:49;;;;;;;4.05;3.55;;;20.00;32.80;;;;;;4993187;28;20046;-59
2022/03/12 06:15:17;;;;;;;3.67;3.03;;;20.00;32.90;;;;;;4993579;28;20050;-59
2022/03/12 06:17:49;;;;;;;3.70;3.40;;;20.00;33.00;;;;;;4989819;28;20055;-59
2022/03/12 06:20:16;;;;;;;3.92;3.55;;;19.90;32.90;;;;;;4991824;28;20417;-60
2022/03/12 06:22:42;;;;;;;4.65;3.15;;;19.90;33.00;;;;;;4991284;28;20046;-60
2022/03/12 06:25:11;;;;;;;3.83;3.50;;;20.00;33.20;;;;;;4991754;28;20541;-59
2022/03/12 06:27:37;;;;;;;4.22;3.20;;;19.90;33.00;;;;;;4993872;28;20068;-58
2022/03/12 06:30:11;;;;;;;3.70;3.40;;;20.00;33.10;;;;;;4992321;28;20050;-59
2022/03/12 06:32:43;;;;;;;4.07;3.17;;;20.00;33.20;;;;;;4995221;28;20569;-58
2022/03/12 06:35:12;;;;;;;4.00;3.28;;;20.00;33.20;;;;;;4993756;28;20038;-59
2022/03/12 06:37:39;;;;;;;3.70;3.40;;;20.00;33.10;;;;;;4990772;28;20529;-59
2022/03/12 06:40:08;;;;;;;3.40;3.10;;;20.00;33.10;;;;;;4994501;28;20391;-59
2022/03/12 06:42:34;;;;;;;4.35;3.58;;;20.00;33.20;;;;;;4992780;28;20108;-59
2022/03/12 06:45:01;;;;;;;4.53;3.60;;;20.00;33.10;;;;;;5000456;28;20045;-59
2022/03/12 06:47:30;;;;;;;3.45;3.15;;;20.00;33.10;;;;;;4992393;28;20410;-59
2022/03/12 06:49:59;;;;;;;3.75;3.22;;;20.00;33.00;;;;;;4993369;28;20119;-59
2022/03/12 06:52:26;;;;;;;3.88;3.47;;;20.00;33.00;;;;;;4992531;28;20149;-59
2022/03/12 06:54:52;;;;;;;3.88;3.47;;;20.00;32.90;;;;;;4992671;28;20058;-58
2022/03/12 06:57:19;;;;;;;4.32;3.35;;;20.00;32.90;;;;;;4991013;28;20046;-59
2022/03/12 06:59:44;;;;;;;3.30;3.00;;;20.00;32.80;;;;;;4992862;28;20096;-59
2022/03/12 07:02:10;;;;;;;3.92;3.50;;;20.00;32.80;;;;;;4992662;28;20459;-59
2022/03/12 07:04:35;;;;;;;4.13;3.03;;;20.10;32.80;;;;;;4992310;28;20046;-59
2022/03/12 07:07:01;;;;;;;3.58;3.28;;;20.10;32.80;;;;;;4976331;28;20081;-58
2022/03/12 07:09:28;;;;;;;4.15;3.53;;;20.10;32.70;;;;;;4994513;28;20706;-58
2022/03/12 07:11:58;;;;;;;4.25;3.40;;;20.10;32.80;;;;;;4996840;28;20061;-58
2022/03/12 07:14:24;;;;;;;3.42;3.13;;;20.10;32.70;;;;;;4997464;28;20050;-58
2022/03/12 07:16:51;;;;;;;4.10;3.38;;;20.10;32.70;;;;;;4996137;28;20046;-58
2022/03/12 07:19:16;;;;;;;4.30;3.20;;;20.10;32.70;;;;;;4998846;28;20057;-59
2022/03/12 07:21:42;;;;;;;4.05;3.40;;;20.10;32.70;;;;;;4994295;28;20042;-59
2022/03/12 07:24:08;;;;;;;5.63;3.72;;;20.20;32.70;;;;;;4994250;28;20064;-60
2022/03/12 07:26:33;;;;;;;4.18;3.53;;;20.20;32.70;;;;;;4992281;28;20137;-59
2022/03/12 07:29:02;;;;;;;4.00;3.70;;;20.20;32.70;;;;;;4974881;28;20077;-59
2022/03/12 07:31:27;;;;;;;4.00;3.40;;;20.20;32.80;;;;;;4993014;28;20093;-59
2022/03/12 07:33:53;;;;;;;3.83;3.53;;;20.20;32.90;;;;;;4993386;28;20518;-59
2022/03/12 07:36:18;;;;;;;4.03;3.30;;;20.20;33.00;;;;;;4993542;28;20058;-60
2022/03/12 07:38:44;;;;;;;4.25;3.40;;;20.20;33.10;;;;;;4994953;28;20068;-59
2022/03/12 07:41:10;;;;;;;4.25;3.83;;;20.20;33.10;;;;;;4996328;28;20042;-58
2022/03/12 07:43:36;;;;;;;4.22;3.60;;;20.20;33.30;;;;;;4995191;28;20045;-58
2022/03/12 07:46:03;;;;;;;3.95;3.33;;;20.20;33.30;;;;;;4998695;28;20042;-58
2022/03/12 07:48:28;;;;;;;3.72;3.20;;;20.20;33.30;;;;;;4995559;28;20188;-59
2022/03/12 07:50:55;;;;;;;3.50;3.20;;;20.20;33.30;;;;;;4992512;28;20624;-59
2022/03/12 07:53:20;;;;;;;3.90;3.42;;;20.20;33.30;;;;;;4995566;28;20809;-59
2022/03/12 07:55:46;;;;;;;4.95;3.63;;;20.20;33.30;;;;;;5002117;28;20081;-59
2022/03/12 07:58:14;;;;;;;4.35;3.95;;;20.30;33.40;;;;;;4995333;28;20054;-62
2022/03/12 08:00:40;;;;;;;4.40;3.60;;;20.30;33.30;;;;;;4995535;28;20038;-59
2022/03/12 08:03:05;;;;;;;3.50;3.20;;;20.30;33.30;;;;;;4990785;28;20065;-60
2022/03/12 08:05:31;;;;;;;4.05;3.35;;;20.30;33.40;;;;;;4994233;28;20050;-59
2022/03/12 08:07:56;;;;;;;4.72;4.20;;;20.30;33.40;;;;;;4993911;28;20046;-59
2022/03/12 08:10:23;;;;;;;4.75;3.63;;;20.30;33.50;;;;;;4995332;28;20054;-59
2022/03/12 08:12:50;;;;;;;6.13;3.78;;;20.30;33.50;;;;;;4994546;28;20049;-59
2022/03/12 08:15:17;;;;;;;3.97;3.55;;;20.30;33.50;;;;;;4994751;28;20049;-59
2022/03/12 08:17:44;;;;;;;4.28;3.60;;;20.30;33.50;;;;;;4994798;28;20504;-59
2022/03/12 08:20:10;;;;;;;4.60;3.78;;;20.30;33.60;;;;;;4993737;28;20669;-59
2022/03/12 08:22:41;;;;;;;4.70;3.97;;;20.40;33.60;;;;;;4996096;28;20050;-59
2022/03/12 08:25:08;;;;;;;;;;;20.40;33.70;;;;;;4994709;28;20046;-59
2022/03/12 08:27:35;;;;;;;4.20;3.80;;;20.40;33.90;;;;;;5012957;28;20416;-58
2022/03/12 08:30:03;;;;;;;4.35;3.42;;;20.40;33.90;;;;;;5002214;28;20038;-60
2022/03/12 08:32:28;;;;;;;3.90;3.60;;;20.40;33.90;;;;;;4995135;28;20112;-59
2022/03/12 08:34:57;;;;;;;4.53;3.65;;;20.40;34.00;;;;;;4993370;28;20074;-59
2022/03/12 08:37:23;;;;;;;4.03;3.60;;;20.40;34.00;;;;;;4994483;28;20065;-59
2022/03/12 08:39:49;;;;;;;3.53;3.22;;;20.40;34.40;;;;;;4992698;28;20410;-59
2022/03/12 08:42:14;;;;;;;4.53;3.50;;;20.40;34.00;;;;;;4994533;28;20045;-59
2022/03/12 08:44:40;;;;;;;3.90;3.50;;;20.40;34.20;;;;;;4994805;28;20073;-59
2022/03/12 08:47:06;;;;;;;4.85;3.60;;;20.40;34.20;;;;;;4993296;28;20038;-59
2022/03/12 08:49:32;;;;;;;4.97;3.35;;;20.50;34.40;;;;;;4993817;28;20058;-58
2022/03/12 08:51:58;;;;;;;3.63;3.33;;;20.50;34.30;;;;;;5009103;28;20129;-58
2022/03/12 08:54:24;;;;;;;3.55;3.25;;;20.50;34.30;;;;;;4995512;28;20057;-58
2022/03/12 08:56:49;;;;;;;3.92;3.60;;;20.50;34.40;;;;;;4994755;28;20077;-59
2022/03/12 08:59:15;;;;;;;9.60;4.07;;;20.50;34.40;;;;;;4991279;28;20156;-59
2022/03/12 09:01:43;;;;;;;3.80;3.38;;;20.50;34.40;;;;;;4992140;28;20057;-59
2022/03/12 09:04:09;;;;;;;3.90;3.53;;;20.50;34.50;;;;;;4992295;28;20411;-59
2022/03/12 09:06:35;;;;;;;3.97;3.45;;;20.50;34.50;;;;;;4994165;28;20038;-59
2022/03/12 09:09:00;;;;;;;3.47;3.15;;;20.50;34.70;;;;;;4994368;28;20034;-59
2022/03/12 09:11:26;;;;;;;5.03;3.22;;;20.50;34.90;;;;;;4993086;28;20058;-59
2022/03/12 09:13:53;;;;;;;3.50;3.20;;;20.60;34.90;;;;;;4993127;28;20049;-59
2022/03/12 09:16:19;;;;;;;4.60;3.45;;;20.50;34.80;;;;;;4993792;28;20054;-58
2022/03/12 09:18:44;;;;;;;3.95;3.30;;;20.50;34.90;;;;;;4994988;28;20034;-59
2022/03/12 09:21:10;;;;;;;5.07;3.65;;;20.60;35.10;;;;;;4993640;28;20054;-59
2022/03/12 09:23:36;;;;;;;4.05;3.17;;;20.60;35.20;;;;;;4991830;28;20061;-59
2022/03/12 09:26:02;;;;;;;4.07;3.63;;;20.60;35.30;;;;;;4993115;28;20077;-59
2022/03/12 09:28:28;;;;;;;4.05;3.17;;;20.60;35.40;;;;;;4992757;28;20077;-59
2022/03/12 09:30:54;;;;;;;4.20;3.42;;;20.60;35.50;;;;;;4991916;28;20049;-58
2022/03/12 09:33:22;;;;;;;4.03;3.63;;;20.60;35.70;;;;;;4989724;28;20061;-59
2022/03/12 09:35:54;;;;;;;4.85;3.15;;;20.60;35.80;;;;;;4990943;28;20070;-58
2022/03/12 09:38:20;;;;;;;3.60;3.08;;;20.60;35.70;;;;;;4993051;28;20042;-59
2022/03/12 09:40:46;;;;;;;3.97;3.42;;;20.60;35.70;;;;;;4992646;28;20053;-58
2022/03/12 09:43:12;;;;;;;4.03;3.20;;;20.60;35.70;;;;;;4993263;28;20386;-58
2022/03/12 09:45:38;;;;;;;3.80;2.70;;;20.60;35.90;;;;;;4994559;28;20077;-59
2022/03/12 09:48:07;;;;;;;3.53;3.22;;;20.60;35.90;;;;;;4995394;28;20084;-59
2022/03/12 09:50:33;;;;;;;4.80;2.88;;;20.70;36.00;;;;;;4992498;28;20068;-58
2022/03/12 09:52:58;;;;;;;4.38;2.90;;;20.70;36.10;;;;;;4993784;28;20050;-59
2022/03/12 09:55:24;;;;;;;3.75;3.00;;;20.70;36.20;;;;;;4993091;28;20046;-58
2022/03/12 09:57:50;;;;;;;3.08;2.60;;;20.70;36.30;;;;;;4995481;28;20084;-59
2022/03/12 10:00:17;;;;;;;2.95;2.65;;;20.70;36.20;;;;;;4992512;28;20050;-59
2022/03/12 10:02:43;;;;;;;4.93;2.80;;;20.70;36.20;;;;;;4991510;28;21032;-58
2022/03/12 10:05:11;;;;;;;3.20;2.88;;;20.70;36.40;;;;;;4990895;28;20127;-58
2022/03/12 10:07:37;;;;;;;4.40;2.90;;;20.70;36.40;;;;;;4993293;28;20725;-58
2022/03/12 10:10:03;;;;;;;2.85;2.65;;;20.70;36.40;;;;;;4990937;28;20125;-59
2022/03/12 10:12:29;;;;;;;4.72;3.03;;;20.70;36.40;;;;;;4992676;28;20489;-59
2022/03/12 10:14:54;;;;;;;3.25;2.90;;;20.70;36.50;;;;;;4992203;28;20049;-58
2022/03/12 10:17:20;;;;;;;3.20;2.90;;;20.70;36.60;;;;;;4992635;28;20624;-59
2022/03/12 10:19:47;;;;;;;3.95;2.47;;;20.70;36.80;;;;;;4991210;28;20151;-59
2022/03/12 10:22:14;;;;;;;2.92;2.60;;;20.70;37.10;;;;;;4993172;28;20054;-58
2022/03/12 10:24:40;;;;;;;3.33;2.63;;;20.70;37.10;;;;;;5008385;28;20057;-59
2022/03/12 10:27:06;;;;;;;2.78;2.58;;;20.80;37.20;;;;;;4991813;28;20057;-58
2022/03/12 10:29:34;;;;;;;2.78;2.47;;;20.80;37.20;;;;;;4994725;28;20030;-59
2022/03/12 10:32:19;;;;;;;3.65;2.90;;;20.80;37.20;;;;;;4992874;28;20545;-59
2022/03/12 10:34:47;;;;;;;3.58;2.97;;;20.80;37.20;;;;;;4992372;28;20866;-59
2022/03/12 10:37:18;;;;;;;3.17;2.88;;;20.80;37.40;;;;;;4994583;28;20148;-59
2022/03/12 10:39:45;;;;;;;3.83;2.42;;;20.80;37.30;;;;;;4992317;28;20389;-59
2022/03/12 10:42:14;;;;;;;2.80;2.50;;;20.80;37.30;;;;;;4983654;28;20062;-59
2022/03/12 10:44:41;;;;;;;2.85;2.58;;;20.80;37.30;;;;;;4996066;28;20045;-59
2022/03/12 10:47:18;;;;;;;2.97;2.72;;;20.80;37.50;;;;;;5010715;28;20054;-59
2022/03/12 10:50:07;;;;;;;3.35;2.60;;;20.80;37.40;;;;;;4996870;28;20054;-59
2022/03/12 10:52:34;;;;;;;2.40;2.20;;;20.80;37.40;;;;;;4996230;28;20490;-59
2022/03/12 10:55:10;;;;;;;3.33;3.03;;;20.80;37.50;;;;;;4996367;28;20088;-60
2022/03/12 10:57:36;;;;;;;2.85;2.42;;;20.80;37.50;;;;;;4995006;28;20069;-59
2022/03/12 11:00:08;;;;;;;5.07;2.90;;;20.80;38.20;;;;;;4998141;28;20038;-59
2022/03/12 11:02:33;;;;;;;3.25;2.42;;;20.80;38.40;;;;;;4996981;28;20050;-60
2022/03/12 11:05:02;;;;;;;4.63;2.50;;;20.80;37.60;;;;;;4995554;28;20051;-59
2022/03/12 11:07:29;;;;;;;2.40;2.20;;;20.80;37.50;;;;;;4995207;28;20060;-60
2022/03/12 11:09:55;;;;;;;3.17;2.28;;;20.90;37.50;;;;;;4995262;28;20052;-59
2022/03/12 11:12:35;;;;;;;4.32;2.80;;;20.80;37.40;;;;;;4997328;28;20092;-60
2022/03/12 11:15:15;;;;;;;2.65;2.45;;;20.80;37.30;;;;;;4999602;28;20573;-60
2022/03/12 11:17:49;;;;;;;3.37;2.63;;;20.80;37.40;;;;;;4996226;28;20045;-60
2022/03/12 11:20:18;;;;;;;3.53;2.50;;;20.90;37.50;;;;;;4995951;28;20077;-59
2022/03/12 11:23:10;;;;;;;3.35;2.20;;;20.80;37.40;;;;;;4996454;28;20046;-60
2022/03/12 11:25:56;;;;;;;3.50;2.53;;;20.80;37.50;;;;;;4994398;28;20390;-60
2022/03/12 11:28:23;;;;;;;4.63;2.60;;;20.80;37.40;;;;;;4996201;28;20058;-59
2022/03/12 11:30:48;;;;;;;2.47;2.28;;;20.80;37.40;;;;;;4995695;28;20532;-59
2022/03/12 11:33:15;;;;;;;4.50;2.20;;;20.80;37.40;;;;;;4978678;28;20062;-60
2022/03/12 11:35:44;;;;;;;4.47;2.55;;;20.90;37.40;;;;;;4997310;28;20046;-60
2022/03/12 11:38:17;;;;;;;3.40;2.45;;;20.80;37.40;;;;;;4996619;28;20045;-59
2022/03/12 11:40:45;;;;;;;3.08;2.30;;;20.80;37.50;;;;;;4997033;28;20077;-59
2022/03/12 11:43:26;;;;;;;4.82;2.60;;;20.80;37.40;;;;;;4994912;28;20050;-59
2022/03/12 11:45:59;;;;;;;2.40;2.17;;;20.90;37.50;;;;;;4996956;28;20081;-59
2022/03/12 11:48:29;;;;;;;5.25;2.38;;;20.90;37.50;;;;;;4995912;28;20042;-59
2022/03/12 11:50:55;;;;;;;2.63;2.38;;;20.80;37.50;;;;;;4995843;28;20062;-59
2022/03/12 11:53:21;;;;;;;2.17;1.98;;;20.80;37.50;;;;;;4995946;28;20045;-59
2022/03/12 11:55:48;;;;;;;2.58;2.35;;;20.80;37.50;;;;;;4995076;28;20046;-59
2022/03/12 11:58:14;;;;;;;3.10;2.00;;;20.90;37.60;;;;;;4999299;28;20136;-60
2022/03/12 12:00:39;;;;;;;3.08;2.75;;;20.90;37.70;;;;;;4995932;28;20136;-60
2022/03/12 12:03:06;;;;;;;7.15;4.72;;;20.90;37.70;;;;;;4995280;28;20091;-60
2022/03/12 12:05:32;;;;;;;13.93;7.45;;;20.80;37.80;;;;;;4995535;28;20089;-60
2022/03/12 12:07:58;;;;;;;10.68;7.13;;;20.90;38.10;;;;;;4994886;28;20600;-60
2022/03/12 12:10:30;;;;;;;10.40;7.32;;;20.90;38.30;;;;;;4994958;28;20148;-60
2022/03/12 12:12:57;;;;;;;8.75;6.28;;;20.90;38.30;;;;;;4995643;28;20164;-60
2022/03/12 12:15:34;;;;;;;8.85;6.80;;;20.90;38.60;;;;;;4996935;28;20053;-60
2022/03/12 12:18:02;;;;;;;11.48;6.00;;;20.90;39.00;;;;;;4992511;28;20038;-60
2022/03/12 12:20:30;;;;;;;11.57;5.78;;;20.90;39.00;;;;;;4994383;28;20052;-60
2022/03/12 12:23:00;;;;;;;7.22;5.47;;;20.90;39.30;;;;;;4994875;28;20049;-59
2022/03/12 12:25:30;;;;;;;8.27;5.50;;;20.90;39.40;;;;;;4991646;28;20042;-60
2022/03/12 12:27:55;;;;;;;6.95;5.07;;;20.90;39.30;;;;;;4993267;28;20057;-64
2022/03/12 12:30:42;;;;;;;7.78;5.38;;;20.90;39.20;;;;;;4993086;28;20045;-60
2022/03/12 12:33:19;;;;;;;6.63;4.93;;;20.90;39.30;;;;;;4991506;28;20054;-59
2022/03/12 12:35:47;;;;;;;9.98;5.03;;;20.90;39.20;;;;;;4994909;28;20089;-60
2022/03/12 12:38:14;;;;;;;6.32;4.13;;;20.90;39.30;;;;;;4994985;28;20039;-57
2022/03/12 12:40:47;;;;;;;5.75;4.20;;;20.90;39.30;;;;;;4992620;28;20122;-57
2022/03/12 12:43:18;;;;;;;5.50;3.83;;;20.90;39.30;;;;;;4992977;28;20105;-58
2022/03/12 12:45:53;;;;;;;6.43;3.78;;;21.00;40.00;;;;;;4991593;28;20057;-61
2022/03/12 12:48:52;;;;;;;5.72;3.25;;;20.90;39.30;;;;;;4988925;28;21101;-59
2022/03/12 12:51:21;;;;;;;8.55;3.20;;;20.90;39.70;;;;;;4993356;28;20077;-60
2022/03/12 12:53:47;;;;;;;3.85;3.03;;;20.90;39.80;;;;;;4997267;28;20095;-59